Time;durP1;ratioP1;P1;durP2;ratioP2;P2;SDS_P1;SDS_P2;PMS_P1;PMS_P2;Temp;Humidity;BMP_temperature;BMP_pressure;BME280_temperature;BME280_humidity;BME280_pressure;Samples;Min_cycle;Max_cycle;Signal;HPM_P1;HPM_P2
2021/11/16 00:00:20;;;;;;;;;;;;;;;;;;5015046;28;19964;-90
2021/11/16 00:02:46;;;;;;;;;;;;;;;;;;5015528;28;19913;-90
2021/11/16 00:05:18;;;;;;;;;;;;;;;;;;5015177;28;20561;-89
2021/11/16 00:07:48;;;;;;;;;;;;;;;;;;5018616;28;19913;-90
2021/11/16 00:10:14;;;;;;;;;;;;;;;;;;5019221;28;20391;-89
2021/11/16 00:12:40;;;;;;;;;;;;;;;;;;5022446;28;19917;-90
2021/11/16 00:15:05;;;;;;;;;;;;;;;;;;5022194;28;20289;-90
2021/11/16 00:17:32;;;;;;;;;;;;;;;;;;5022266;28;20346;-90
2021/11/16 00:20:02;;;;;;;;;;;;;;;;;;5021926;28;19917;-89
2021/11/16 00:22:30;;;;;;;;;;;;;;;;;;5022395;28;19916;-90
2021/11/16 00:27:33;;;;;;;;;;;;;;;;;;5038554;28;19944;-90
2021/11/16 00:30:00;;;;;;;;;;;;;;;;;;5038015;28;19913;-89
2021/11/16 00:32:28;;;;;;;;;;;;;;;;;;5021812;28;19928;-90
2021/11/16 00:34:53;;;;;;;;;;;;;;;;;;5037975;28;19912;-89
2021/11/16 00:37:28;;;;;;;;;;;;;;;;;;5022108;28;19917;-90
2021/11/16 00:40:00;;;;;;;;;;;;;;;;;;5022753;28;19912;-90
2021/11/16 00:42:27;;;;;;;;;;;;;;;;;;5021523;28;19912;-90
2021/11/16 00:44:56;;;;;;;;;;;;;;;;;;5021736;28;19913;-90
2021/11/16 00:47:28;;;;;;;;;;;;;;;;;;5021518;28;19917;-89
2021/11/16 00:49:53;;;;;;;;;;;;;;;;;;5021694;28;19912;-90
2021/11/16 00:52:22;;;;;;;;;;;;;;;;;;5021432;28;19963;-90
2021/11/16 00:54:50;;;;;;;;;;;;;;;;;;5037893;28;19995;-90
2021/11/16 00:57:17;;;;;;;;;;;;;;;;;;5021404;28;19912;-90
2021/11/16 00:59:45;;;;;;;;;;;;;;;;;;5021102;28;19917;-90
2021/11/16 01:02:12;;;;;;;;;;;;;;;;;;5017610;28;19917;-90
2021/11/16 01:04:39;;;;;;;;;;;;;;;;;;5017819;28;20274;-90
2021/11/16 01:07:11;;;;;;;;;;;;;;;;;;5023105;28;19930;-91
2021/11/16 01:09:39;;;;;;;;;;;;;;;;;;5020981;28;19917;-90
2021/11/16 01:12:05;;;;;;;;;;;;;;;;;;5021229;28;19917;-90
2021/11/16 01:14:33;;;;;;;;;;;;;;;;;;5021289;28;19917;-90
2021/11/16 01:16:59;;;;;;;;;;;;;;;;;;5021062;28;19913;-89
2021/11/16 01:19:27;;;;;;;;;;;;;;;;;;5036936;28;19920;-90
2021/11/16 01:21:56;;;;;;;;;;;;;;;;;;5037558;28;19920;-90
2021/11/16 01:24:22;;;;;;;;;;;;;;;;;;5054247;28;19909;-89
2021/11/16 01:26:50;;;;;;;;;;;;;;;;;;5054449;28;19924;-89
2021/11/16 01:29:20;;;;;;;;;;;;;;;;;;5053885;28;19932;-90
2021/11/16 01:31:46;;;;;;;;;;;;;;;;;;5037256;28;20008;-89
2021/11/16 01:34:15;;;;;;;;;;;;;;;;;;5053833;28;19916;-90
2021/11/16 01:36:41;;;;;;;;;;;;;;;;;;5037024;28;19992;-90
2021/11/16 01:39:07;;;;;;;;;;;;;;;;;;5053307;28;19917;-89
2021/11/16 01:41:33;;;;;;;;;;;;;;;;;;5053959;28;20011;-89
2021/11/16 01:44:01;;;;;;;;;;;;;;;;;;5053045;28;19940;-90
2021/11/16 01:46:27;;;;;;;;;;;;;;;;;;5020784;28;19917;-90
2021/11/16 01:48:53;;;;;;;;;;;;;;;;;;5020412;28;20379;-91
2021/11/16 01:51:20;;;;;;;;;;;;;;;;;;5019984;28;19912;-90
2021/11/16 01:54:01;;;;;;;;;;;;;;;;;;5019947;28;20425;-90
2021/11/16 01:56:29;;;;;;;;;;;;;;;;;;5020708;28;19913;-89
2021/11/16 01:58:54;;;;;;;;;;;;;;;;;;5032060;28;19913;-90
2021/11/16 02:01:22;;;;;;;;;;;;;;;;;;5017037;28;19963;-90
2021/11/16 02:03:47;;;;;;;;;;;;;;;;;;5016794;28;19917;-89
2021/11/16 02:06:16;;;;;;;;;;;;;;;;;;5016651;28;19924;-90
2021/11/16 02:08:43;;;;;;;;;;;;;;;;;;5036541;28;19917;-90
2021/11/16 02:11:10;;;;;;;;;;;;;;;;;;5053012;28;19916;-90
2021/11/16 02:13:37;;;;;;;;;;;;;;;;;;5036096;28;19944;-89
2021/11/16 02:16:03;;;;;;;;;;;;;;;;;;5036225;28;20374;-89
2021/11/16 02:18:31;;;;;;;;;;;;;;;;;;5052838;28;19919;-89
2021/11/16 02:20:58;;;;;;;;;;;;;;;;;;5036316;28;19928;-89
2021/11/16 02:23:27;;;;;;;;;;;;;;;;;;5052952;28;19916;-89
2021/11/16 02:25:55;;;;;;;;;;;;;;;;;;5052701;28;19970;-89
2021/11/16 02:28:23;;;;;;;;;;;;;;;;;;5052627;28;19916;-88
2021/11/16 02:30:50;;;;;;;;;;;;;;;;;;5052615;28;19921;-89
2021/11/16 02:33:19;;;;;;;;;;;;;;;;;;5052850;28;19912;-90
2021/11/16 02:35:46;;;;;;;;;;;;;;;;;;5052732;28;19916;-90
2021/11/16 02:38:14;;;;;;;;;;;;;;;;;;5019482;28;20332;-89
2021/11/16 02:40:42;;;;;;;;;;;;;;;;;;5019717;28;20011;-89
2021/11/16 02:43:10;;;;;;;;;;;;;;;;;;5019219;28;19952;-89
2021/11/16 02:45:38;;;;;;;;;;;;;;;;;;5052362;28;19919;-88
2021/11/16 02:48:13;;;;;;;;;;;;;;;;;;5019672;28;20011;-89
2021/11/16 02:50:46;;;;;;;;;;;;;;;;;;5020769;28;20270;-89
2021/11/16 02:53:13;;;;;;;;;;;;;;;;;;5019532;28;19960;-90
2021/11/16 02:55:40;;;;;;;;;;;;;;;;;;5019391;28;19917;-89
2021/11/16 02:58:12;;;;;;;;;;;;;;;;;;5051705;28;20389;-89
2021/11/16 03:00:41;;;;;;;;;;;;;;;;;;5035532;28;19917;-89
2021/11/16 03:03:07;;;;;;;;;;;;;;;;;;5032140;28;19913;-89
2021/11/16 03:05:35;;;;;;;;;;;;;;;;;;5048883;28;19921;-89
2021/11/16 03:08:04;;;;;;;;;;;;;;;;;;5049182;28;19917;-89
2021/11/16 03:10:32;;;;;;;;;;;;;;;;;;5015638;28;19932;-89
2021/11/16 03:12:59;;;;;;;;;;;;;;;;;;5020967;28;19921;-88
2021/11/16 03:15:27;;;;;;;;;;;;;;;;;;5052440;28;20008;-89
2021/11/16 03:17:55;;;;;;;;;;;;;;;;;;5052345;28;19921;-90
2021/11/16 03:20:21;;;;;;;;;;;;;;;;;;5035513;28;19916;-89
2021/11/16 03:22:52;;;;;;;;;;;;;;;;;;5052259;28;19940;-89
2021/11/16 03:25:18;;;;;;;;;;;;;;;;;;5035415;28;20013;-89
2021/11/16 03:27:51;;;;;;;;;;;;;;;;;;5052047;28;20031;-89
2021/11/16 03:30:19;;;;;;;;;;;;;;;;;;5051524;28;19913;-89
2021/11/16 03:32:46;;;;;;;;;;;;;;;;;;5035078;28;19913;-90
2021/11/16 03:35:14;;;;;;;;;;;;;;;;;;5035817;28;19917;-89
2021/11/16 03:37:45;;;;;;;;;;;;;;;;;;5019127;28;19913;-89
2021/11/16 03:40:14;;;;;;;;;;;;;;;;;;5019166;28;20087;-88
2021/11/16 03:42:44;;;;;;;;;;;;;;;;;;5022189;28;19917;-89
2021/11/16 03:45:12;;;;;;;;;;;;;;;;;;5022914;28;20274;-89
2021/11/16 03:47:39;;;;;;;;;;;;;;;;;;5022946;28;19917;-89
2021/11/16 03:50:05;;;;;;;;;;;;;;;;;;5055351;28;19912;-89
2021/11/16 03:52:41;;;;;;;;;;;;;;;;;;5039886;28;20367;-89
2021/11/16 03:55:17;;;;;;;;;;;;;;;;;;5055668;28;19913;-89
2021/11/16 03:58:04;;;;;;;;;;;;;;;;;;5055615;28;19923;-89
2021/11/16 04:00:51;;;;;;;;;;;;;;;;;;5055431;28;20435;-89
2021/11/16 04:03:41;;;;;;;;;;;;;;;;;;5058599;28;20370;-89
2021/11/16 04:06:27;;;;;;;;;;;;;;;;;;5055685;28;20278;-89
2021/11/16 04:09:13;;;;;;;;;;;;;;;;;;5055199;28;20256;-88
2021/11/16 04:12:00;;;;;;;;;;;;;;;;;;5055467;28;19956;-88
2021/11/16 04:14:48;;;;;;;;;;;;;;;;;;5029751;28;20326;-89
2021/11/16 04:17:35;;;;;;;;;;;;;;;;;;5049467;28;19923;-88
2021/11/16 04:20:03;;;;;;;;;;;;;;;;;;5051619;28;19917;-89
2021/11/16 04:22:31;;;;;;;;;;;;;;;;;;5051688;28;19920;-89
2021/11/16 04:24:58;;;;;;;;;;;;;;;;;;5018538;28;19917;-88
2021/11/16 04:27:23;;;;;;;;;;;;;;;;;;5050865;28;19917;-88
2021/11/16 04:29:52;;;;;;;;;;;;;;;;;;5054666;28;19921;-88
2021/11/16 04:32:17;;;;;;;;;;;;;;;;;;5055234;28;19971;-88
2021/11/16 04:34:45;;;;;;;;;;;;;;;;;;5055269;28;19983;-89
2021/11/16 04:37:13;;;;;;;;;;;;;;;;;;5038402;28;19967;-88
2021/11/16 04:39:38;;;;;;;;;;;;;;;;;;5037836;28;19966;-88
2021/11/16 04:42:04;;;;;;;;;;;;;;;;;;5021518;28;19914;-89
2021/11/16 04:44:32;;;;;;;;;;;;;;;;;;5021786;28;20375;-88
2021/11/16 04:47:01;;;;;;;;;;;;;;;;;;5018539;28;20272;-89
2021/11/16 04:49:36;;;;;;;;;;;;;;;;;;5021667;28;19920;-89
2021/11/16 05:02:44;;;;;;;;;;;;;;;;;;5053947;28;19913;-88
2021/11/16 05:05:15;;;;;;;;;;;;;;;;;;5037567;28;19927;-88
2021/11/16 05:07:42;;;;;;;;;;;;;;;;;;5017899;28;19925;-89
2021/11/16 05:10:08;;;;;;;;;;;;;;;;;;5018094;28;20442;-88
2021/11/16 05:12:35;;;;;;;;;;;;;;;;;;5017648;28;19913;-89
2021/11/16 05:15:03;;;;;;;;;;;;;;;;;;5017797;28;19920;-87
2021/11/16 05:17:28;;;;;;;;;;;;;;;;;;5017673;28;20006;-88
2021/11/16 05:19:54;;;;;;;;;;;;;;;;;;5017494;28;19964;-88
2021/11/16 05:22:19;;;;;;;;;;;;;;;;;;5017613;28;20367;-88
2021/11/16 05:24:46;;;;;;;;;;;;;;;;;;5017714;28;19972;-88
2021/11/16 05:27:14;;;;;;;;;;;;;;;;;;5017732;28;19920;-88
2021/11/16 05:29:42;;;;;;;;;;;;;;;;;;5017102;28;19975;-88
2021/11/16 05:32:08;;;;;;;;;;;;;;;;;;5019271;28;19921;-84
2021/11/16 05:34:33;;;;;;;;;;;;;;;;;;5016204;28;19917;-88
2021/11/16 05:36:58;;;;;;;;;;;;;;;;;;5019586;28;19913;-89
2021/11/16 05:39:24;;;;;;;;;;;;;;;;;;5026320;28;19935;-85
2021/11/16 05:41:49;;;;;;;;;;;;;;;;;;5035737;28;19931;-86
2021/11/16 05:44:15;;;;;;;;;;;;;;;;;;5018550;28;19916;-86
2021/11/16 05:46:42;;;;;;;;;;;;;;;;;;5052356;28;20387;-84
2021/11/16 05:49:08;;;;;;;;;;;;;;;;;;5035652;28;19913;-85
2021/11/16 05:51:33;;;;;;;;;;;;;;;;;;5018113;28;19924;-84
2021/11/16 05:54:01;;;;;;;;;;;;;;;;;;5052165;28;20449;-84
2021/11/16 05:56:27;;;;;;;;;;;;;;;;;;5051468;28;19988;-83
2021/11/16 05:58:53;;;;;;;;;;;;;;;;;;5034349;28;19944;-83
2021/11/16 06:01:22;;;;;;;;;;;;;;;;;;5014560;28;19923;-85
2021/11/16 06:03:51;;;;;;;;;;;;;;;;;;5018004;28;19921;-84
2021/11/16 06:06:20;;;;;;;;;;;;;;;;;;5054471;28;19963;-84
2021/11/16 06:08:48;;;;;;;;;;;;;;;;;;5027374;28;19924;-84
2021/11/16 06:11:15;;;;;;;;;;;;;;;;;;5017865;28;19924;-84
2021/11/16 06:13:40;;;;;;;;;;;;;;;;;;5013369;28;19917;-84
2021/11/16 06:16:05;;;;;;;;;;;;;;;;;;5034156;28;19971;-83
2021/11/16 06:18:31;;;;;;;;;;;;;;;;;;5021028;28;20003;-83
2021/11/16 06:20:56;;;;;;;;;;;;;;;;;;5059396;28;19966;-84
2021/11/16 06:23:21;;;;;;;;;;;;;;;;;;5054747;28;19917;-89
2021/11/16 06:25:47;;;;;;;;;;;;;;;;;;5028124;28;20323;-92
2021/11/16 06:28:13;;;;;;;;;;;;;;;;;;5029047;28;19979;-93
2021/11/16 06:30:38;;;;;;;;;;;;;;;;;;5038961;28;19912;-93
2021/11/16 06:33:04;;;;;;;;;;;;;;;;;;5025694;28;19924;-94
2021/11/16 06:35:29;;;;;;;;;;;;;;;;;;5035732;28;19986;-94
2021/11/16 06:37:54;;;;;;;;;;;;;;;;;;5052350;28;19923;-94
2021/11/16 06:43:24;;;;;;;;;;;;;;;;;;5051448;28;20332;-94
2021/11/16 06:45:50;;;;;;;;;;;;;;;;;;5035609;28;19958;-94
2021/11/16 06:48:16;;;;;;;;;;;;;;;;;;5051605;28;19915;-94
2021/11/16 06:50:53;;;;;;;;;;;;;;;;;;5017947;28;19917;-95
2021/11/16 06:53:44;;;;;;;;;;;;;;;;;;5032232;28;20291;-94
2021/11/16 06:56:09;;;;;;;;;;;;;;;;;;5051810;28;20486;-94
2021/11/16 06:59:02;;;;;;;;;;;;;;;;;;5019051;28;20003;-94
2021/11/16 07:01:34;;;;;;;;;;;;;;;;;;5050830;28;19928;-94
2021/11/16 07:04:05;;;;;;;;;;;;;;;;;;5051756;28;20386;-93
2021/11/16 07:06:30;;;;;;;;;;;;;;;;;;5017716;28;19933;-91
2021/11/16 07:08:56;;;;;;;;;;;;;;;;;;5017562;28;19939;-93
2021/11/16 07:11:22;;;;;;;;;;;;;;;;;;5050906;28;19963;-90
2021/11/16 07:13:53;;;;;;;;;;;;;;;;;;5035313;28;19952;-92
2021/11/16 07:16:19;;;;;;;;;;;;;;;;;;5034670;28;19912;-95
2021/11/16 07:18:46;;;;;;;;;;;;;;;;;;5034964;28;19912;-91
2021/11/16 07:21:11;;;;;;;;;;;;;;;;;;5051213;28;20439;-90
2021/11/16 07:23:36;;;;;;;;;;;;;;;;;;5051466;28;20004;-91
2021/11/16 07:26:03;;;;;;;;;;;;;;;;;;5018082;28;19917;-92
2021/11/16 07:28:28;;;;;;;;;;;;;;;;;;5051695;28;20003;-91
2021/11/16 07:30:54;;;;;;;;;;;;;;;;;;5017830;28;20007;-91
2021/11/16 07:33:20;;;;;;;;;;;;;;;;;;5018211;28;20307;-91
2021/11/16 07:35:45;;;;;;;;;;;;;;;;;;5035122;28;19913;-90
2021/11/16 07:38:15;;;;;;;;;;;;;;;;;;5018494;28;19998;-96
2021/11/16 07:40:43;;;;;;;;;;;;;;;;;;5018632;28;19925;-91
2021/11/16 07:43:10;;;;;;;;;;;;;;;;;;5035055;28;19916;-89
2021/11/16 07:45:41;;;;;;;;;;;;;;;;;;5034945;28;19920;-90
2021/11/16 07:48:08;;;;;;;;;;;;;;;;;;5018541;28;19913;-89
2021/11/16 07:50:41;;;;;;;;;;;;;;;;;;5018652;28;20278;-90
2021/11/16 07:53:07;;;;;;;;;;;;;;;;;;5035130;28;19961;-89
2021/11/16 07:55:32;;;;;;;;;;;;;;;;;;5031690;28;19917;-89
2021/11/16 07:58:02;;;;;;;;;;;;;;;;;;5034813;28;19920;-89
2021/11/16 08:00:27;;;;;;;;;;;;;;;;;;5018387;28;20000;-90
2021/11/16 08:03:04;;;;;;;;;;;;;;;;;;5018374;28;19959;-89
2021/11/16 08:10:53;;;;;;;;;;;;;;;;;;5035753;28;20055;-88
2021/11/16 08:13:30;;;;;;;;;;;;;;;;;;5018422;28;19912;-88
2021/11/16 08:16:15;;;;;;;;;;;;;;;;;;5019480;28;20376;-88
2021/11/16 08:18:45;;;;;;;;;;;;;;;;;;5033325;28;19917;-86
2021/11/16 08:21:11;;;;;;;;;;;;;;;;;;5017489;28;20393;-87
2021/11/16 08:23:43;;;;;;;;;;;;;;;;;;5017276;28;19913;-86
2021/11/16 08:26:09;;;;;;;;;;;;;;;;;;5034080;28;19958;-87
2021/11/16 08:28:34;;;;;;;;;;;;;;;;;;5019579;28;19913;-86
2021/11/16 08:30:59;;;;;;;;;;;;;;;;;;5020404;28;20055;-86
2021/11/16 08:33:25;;;;;;;;;;;;;;;;;;5037727;28;19920;-87
2021/11/16 08:35:51;;;;;;;;;;;;;;;;;;5020989;28;19939;-87
2021/11/16 08:38:17;;;;;;;;;;;;;;;;;;5037286;28;20426;-87
2021/11/16 08:40:45;;;;;;;;;;;;;;;;;;5021217;28;20016;-87
2021/11/16 08:43:15;;;;;;;;;;;;;;;;;;5021063;28;19958;-87
2021/11/16 08:45:46;;;;;;;;;;;;;;;;;;5037310;28;19948;-88
2021/11/16 08:48:12;;;;;;;;;;;;;;;;;;5021381;28;19916;-86
2021/11/16 08:50:39;;;;;;;;;;;;;;;;;;5020632;28;19917;-87
2021/11/16 08:53:08;;;;;;;;;;;;;;;;;;5020701;28;20370;-87
2021/11/16 08:55:34;;;;;;;;;;;;;;;;;;5029138;28;20011;-87
2021/11/16 08:58:00;;;;;;;;;;;;;;;;;;5045376;28;19995;-85
2021/11/16 09:00:26;;;;;;;;;;;;;;;;;;5036041;28;19920;-87
2021/11/16 09:02:54;;;;;;;;;;;;;;;;;;5036954;28;19913;-86
2021/11/16 09:05:19;;;;;;;;;;;;;;;;;;5020056;28;20353;-86
2021/11/16 09:07:49;;;;;;;;;;;;;;;;;;5036873;28;20003;-85
2021/11/16 09:10:14;;;;;;;;;;;;;;;;;;5019821;28;20395;-87
2021/11/16 09:12:42;;;;;;;;;;;;;;;;;;5019981;28;19945;-87
2021/11/16 09:15:08;;;;;;;;;;;;;;;;;;5019638;28;19912;-85
2021/11/16 09:17:33;;;;;;;;;;;;;;;;;;5019488;28;19924;-85
2021/11/16 09:20:34;;;;;;;;;;;;;;;;;;5036177;28;20363;-87
2021/11/16 09:22:59;;;;;;;;;;;;;;;;;;5012025;28;20327;-87
2021/11/16 09:25:35;;;;;;;;;;;;;;;;;;5027683;28;19967;-86
2021/11/16 09:28:05;;;;;;;;;;;;;;;;;;5035742;28;19923;-86
2021/11/16 09:30:31;;;;;;;;;;;;;;;;;;5020106;28;19924;-88
2021/11/16 09:33:08;;;;;;;;;;;;;;;;;;5019661;28;19919;-87
2021/11/16 09:35:40;;;;;;;;;;;;;;;;;;5020136;28;20378;-88
2021/11/16 09:38:06;;;;;;;;;;;;;;;;;;5019919;28;19917;-91
2021/11/16 09:40:31;;;;;;;;;;;;;;;;;;5019651;28;20286;-89
2021/11/16 09:42:58;;;;;;;;;;;;;;;;;;5020121;28;19917;-88
2021/11/16 09:45:25;;;;;;;;;;;;;;;;;;5036771;28;19913;-88
2021/11/16 09:47:51;;;;;;;;;;;;;;;;;;5037095;28;19916;-89
2021/11/16 09:50:17;;;;;;;;;;;;;;;;;;5019820;28;19965;-88
2021/11/16 09:52:45;;;;;;;;;;;;;;;;;;5019996;28;20397;-89
2021/11/16 09:55:11;;;;;;;;;;;;;;;;;;5025357;28;20398;-88
2021/11/16 09:57:41;;;;;;;;;;;;;;;;;;5048062;28;19913;-89
2021/11/16 10:00:08;;;;;;;;;;;;;;;;;;5019694;28;19913;-88
2021/11/16 10:02:33;;;;;;;;;;;;;;;;;;5019818;28;20382;-89
2021/11/16 10:05:01;;;;;;;;;;;;;;;;;;5020073;28;19917;-91
2021/11/16 10:07:26;;;;;;;;;;;;;;;;;;5020014;28;19917;-90
2021/11/16 10:09:52;;;;;;;;;;;;;;;;;;5020048;28;19916;-90
2021/11/16 10:12:18;;;;;;;;;;;;;;;;;;5035824;28;19982;-89
2021/11/16 10:14:43;;;;;;;;;;;;;;;;;;5019896;28;20378;-89
2021/11/16 10:17:09;;;;;;;;;;;;;;;;;;5019467;28;19959;-86
2021/11/16 10:19:34;;;;;;;;;;;;;;;;;;5036112;28;20393;-90
2021/11/16 10:21:59;;;;;;;;;;;;;;;;;;5019854;28;19913;-91
2021/11/16 10:24:32;;;;;;;;;;;;;;;;;;5019353;28;19954;-92
2021/11/16 10:27:20;;;;;;;;;;;;;;;;;;5019151;28;19919;-91
2021/11/16 10:30:00;;;;;;;;;;;;;;;;;;5032564;28;19913;-92
2021/11/16 10:32:26;;;;;;;;;;;;;;;;;;5019411;28;20308;-92
2021/11/16 10:34:52;;;;;;;;;;;;;;;;;;5019579;28;19917;-90
2021/11/16 10:37:20;;;;;;;;;;;;;;;;;;5019361;28;19917;-92
2021/11/16 10:39:45;;;;;;;;;;;;;;;;;;5036016;28;19917;-91
2021/11/16 10:42:17;;;;;;;;;;;;;;;;;;5052094;28;19917;-89
2021/11/16 10:44:55;;;;;;;;;;;;;;;;;;5035184;28;20452;-87
2021/11/16 10:47:31;;;;;;;;;;;;;;;;;;5018165;28;19917;-86
2021/11/16 10:49:59;;;;;;;;;;;;;;;;;;5034841;28;19913;-87
2021/11/16 10:52:26;;;;;;;;;;;;;;;;;;5018078;28;20402;-90
2021/11/16 10:54:55;;;;;;;;;;;;;;;;;;5018510;28;19924;-87
2021/11/16 10:57:21;;;;;;;;;;;;;;;;;;5017385;28;19920;-87
2021/11/16 10:59:55;;;;;;;;;;;;;;;;;;5032938;28;19913;-86
2021/11/16 11:02:22;;;;;;;;;;;;;;;;;;5016974;28;19921;-88
2021/11/16 11:04:48;;;;;;;;;;;;;;;;;;5018372;28;20233;-89
2021/11/16 11:07:13;;;;;;;;;;;;;;;;;;5018699;28;19964;-90
2021/11/16 11:09:39;;;;;;;;;;;;;;;;;;5018820;28;19917;-90
2021/11/16 11:12:05;;;;;;;;;;;;;;;;;;5018907;28;19939;-90
2021/11/16 11:14:35;;;;;;;;;;;;;;;;;;5018385;28;19923;-87
2021/11/16 11:17:01;;;;;;;;;;;;;;;;;;5035311;28;20283;-90
2021/11/16 11:19:31;;;;;;;;;;;;;;;;;;5035084;28;19972;-89
2021/11/16 11:21:59;;;;;;;;;;;;;;;;;;5019245;28;19949;-89
2021/11/16 11:24:36;;;;;;;;;;;;;;;;;;5035169;28;20022;-90
2021/11/16 11:27:10;;;;;;;;;;;;;;;;;;5036182;28;19917;-90
2021/11/16 11:29:42;;;;;;;;;;;;;;;;;;5019944;28;19909;-90
2021/11/16 11:32:17;;;;;;;;;;;;;;;;;;5018972;28;20302;-91
2021/11/16 11:34:47;;;;;;;;;;;;;;;;;;5018737;28;19913;-93
2021/11/16 11:37:17;;;;;;;;;;;;;;;;;;5018624;28;19916;-90
2021/11/16 11:39:43;;;;;;;;;;;;;;;;;;5018478;28;20366;-90
2021/11/16 11:42:12;;;;;;;;;;;;;;;;;;5018411;28;19942;-91
2021/11/16 11:44:41;;;;;;;;;;;;;;;;;;5035355;28;19920;-91
2021/11/16 11:47:06;;;;;;;;;;;;;;;;;;5019065;28;19913;-90
2021/11/16 11:49:36;;;;;;;;;;;;;;;;;;5018713;28;19917;-90
2021/11/16 11:52:02;;;;;;;;;;;;;;;;;;5018364;28;19916;-89
2021/11/16 11:54:27;;;;;;;;;;;;;;;;;;5018586;28;19912;-91
2021/11/16 11:56:54;;;;;;;;;;;;;;;;;;5033583;28;20336;-91
2021/11/16 11:59:20;;;;;;;;;;;;;;;;;;5018437;28;19912;-91
2021/11/16 12:01:46;;;;;;;;;;;;;;;;;;5018093;28;20366;-91
2021/11/16 12:04:12;;;;;;;;;;;;;;;;;;5038450;28;19920;-92
2021/11/16 12:06:39;;;;;;;;;;;;;;;;;;5022241;28;19917;-92
2021/11/16 12:09:04;;;;;;;;;;;;;;;;;;5022078;28;19952;-91
2021/11/16 12:11:31;;;;;;;;;;;;;;;;;;5022027;28;19964;-92
2021/11/16 12:14:21;;;;;;;;;;;;;;;;;;5039103;28;19913;-92
2021/11/16 12:16:52;;;;;;;;;;;;;;;;;;5055120;28;19963;-92
2021/11/16 12:19:19;;;;;;;;;;;;;;;;;;5038422;28;19950;-90
2021/11/16 12:21:45;;;;;;;;;;;;;;;;;;5021454;28;19909;-89
2021/11/16 12:24:15;;;;;;;;;;;;;;;;;;5021501;28;19913;-88
2021/11/16 12:26:53;;;;;;;;;;;;;;;;;;5021519;28;19999;-88
2021/11/16 12:29:19;;;;;;;;;;;;;;;;;;5037810;28;19917;-89
2021/11/16 12:31:46;;;;;;;;;;;;;;;;;;5021542;28;19920;-89
2021/11/16 12:34:11;;;;;;;;;;;;;;;;;;5038551;28;19924;-89
2021/11/16 12:36:44;;;;;;;;;;;;;;;;;;5021660;28;19912;-89
2021/11/16 12:39:17;;;;;;;;;;;;;;;;;;5021387;28;19970;-92
2021/11/16 12:41:44;;;;;;;;;;;;;;;;;;5021887;28;19927;-91
2021/11/16 12:44:10;;;;;;;;;;;;;;;;;;5020991;28;20042;-90
2021/11/16 12:46:37;;;;;;;;;;;;;;;;;;5021346;28;19952;-91
2021/11/16 12:49:06;;;;;;;;;;;;;;;;;;5021526;28;19913;-93
2021/11/16 12:51:33;;;;;;;;;;;;;;;;;;5021261;28;19996;-93
2021/11/16 12:54:09;;;;;;;;;;;;;;;;;;5021709;28;19913;-92
2021/11/16 12:56:50;;;;;;;;;;;;;;;;;;5018068;28;19920;-92
2021/11/16 12:59:15;;;;;;;;;;;;;;;;;;5034190;28;19971;-93
2021/11/16 13:01:41;;;;;;;;;;;;;;;;;;5034368;28;20359;-93
2021/11/16 13:04:07;;;;;;;;;;;;;;;;;;5017731;28;19909;-92
2021/11/16 13:06:33;;;;;;;;;;;;;;;;;;5017563;28;19913;-93
2021/11/16 13:08:59;;;;;;;;;;;;;;;;;;5017637;28;19913;-93
2021/11/16 13:11:39;;;;;;;;;;;;;;;;;;5037574;28;19916;-92
2021/11/16 13:14:04;;;;;;;;;;;;;;;;;;5036694;28;20441;-93
2021/11/16 13:16:29;;;;;;;;;;;;;;;;;;5020518;28;19920;-93
2021/11/16 13:18:55;;;;;;;;;;;;;;;;;;5021005;28;19963;-91
2021/11/16 13:21:21;;;;;;;;;;;;;;;;;;5020415;28;20342;-92
2021/11/16 13:23:51;;;;;;;;;;;;;;;;;;5037520;28;19912;-90
2021/11/16 13:26:25;;;;;;;;;;;;;;;;;;5037154;28;19913;-91
2021/11/16 13:29:19;;;;;;;;;;;;;;;;;;5037388;28;19955;-91
2021/11/16 13:31:38;;;;;;;;;;;;;;;;;;5039037;28;19952;-91
2021/11/16 13:34:03;;;;;;;;;;;;;;;;;;5037021;28;19967;-91
2021/11/16 13:36:28;;;;;;;;;;;;;;;;;;5036974;28;19936;-93
2021/11/16 13:38:54;;;;;;;;;;;;;;;;;;5037180;28;19913;-94
2021/11/16 13:41:38;;;;;;;;;;;;;;;;;;5036845;28;19920;-95
2021/11/16 13:44:10;;;;;;;;;;;;;;;;;;5037048;28;19924;-95
2021/11/16 13:46:37;;;;;;;;;;;;;;;;;;5020023;28;19917;-92
2021/11/16 13:49:02;;;;;;;;;;;;;;;;;;5020639;28;19912;-91
2021/11/16 13:51:27;;;;;;;;;;;;;;;;;;5020393;28;19928;-91
2021/11/16 13:53:56;;;;;;;;;;;;;;;;;;5053554;28;19916;-90
2021/11/16 13:56:22;;;;;;;;;;;;;;;;;;5016910;28;19996;-91
2021/11/16 13:58:47;;;;;;;;;;;;;;;;;;5033433;28;20460;-87
2021/11/16 14:01:14;;;;;;;;;;;;;;;;;;5018699;28;19917;-86
2021/11/16 14:03:39;;;;;;;;;;;;;;;;;;5036017;28;19924;-87
2021/11/16 14:06:05;;;;;;;;;;;;;;;;;;5019316;28;19917;-87
2021/11/16 14:08:30;;;;;;;;;;;;;;;;;;5035772;28;19921;-86
2021/11/16 14:10:57;;;;;;;;;;;;;;;;;;5035762;28;19924;-86
2021/11/16 14:13:34;;;;;;;;;;;;;;;;;;5018704;28;19932;-87
2021/11/16 14:16:00;;;;;;;;;;;;;;;;;;5019281;28;19912;-87
2021/11/16 14:18:25;;;;;;;;;;;;;;;;;;5035219;28;20393;-86
2021/11/16 14:20:56;;;;;;;;;;;;;;;;;;5018835;28;19917;-87
2021/11/16 14:23:23;;;;;;;;;;;;;;;;;;5035475;28;19924;-87
2021/11/16 14:25:52;;;;;;;;;;;;;;;;;;5018913;28;19917;-86
2021/11/16 14:28:18;;;;;;;;;;;;;;;;;;5018901;28;20444;-87
2021/11/16 14:30:43;;;;;;;;;;;;;;;;;;5018703;28;19917;-87
2021/11/16 14:33:12;;;;;;;;;;;;;;;;;;5035150;28;19914;-86
2021/11/16 14:35:38;;;;;;;;;;;;;;;;;;5018482;28;19913;-86
2021/11/16 14:38:03;;;;;;;;;;;;;;;;;;5035055;28;19973;-86
2021/11/16 14:40:29;;;;;;;;;;;;;;;;;;5035102;28;19939;-86
2021/11/16 14:42:54;;;;;;;;;;;;;;;;;;5018135;28;19948;-86
2021/11/16 14:45:24;;;;;;;;;;;;;;;;;;5034699;28;20400;-86
2021/11/16 14:47:49;;;;;;;;;;;;;;;;;;5018475;28;19928;-87
2021/11/16 14:50:20;;;;;;;;;;;;;;;;;;5018479;28;19916;-86
2021/11/16 14:52:46;;;;;;;;;;;;;;;;;;5019141;28;19913;-86
2021/11/16 14:55:12;;;;;;;;;;;;;;;;;;5015165;28;19924;-86
2021/11/16 14:57:38;;;;;;;;;;;;;;;;;;5034721;28;20070;-86
2021/11/16 15:00:22;;;;;;;;;;;;;;;;;;5017840;28;19924;-86
2021/11/16 15:02:52;;;;;;;;;;;;;;;;;;5034523;28;19923;-86
2021/11/16 15:05:18;;;;;;;;;;;;;;;;;;5018013;28;20003;-86
2021/11/16 15:07:43;;;;;;;;;;;;;;;;;;5034595;28;20351;-86
2021/11/16 15:10:09;;;;;;;;;;;;;;;;;;5018005;28;19924;-86
2021/11/16 15:12:34;;;;;;;;;;;;;;;;;;5031116;28;19920;-85
2021/11/16 15:15:04;;;;;;;;;;;;;;;;;;5031063;28;19920;-86
2021/11/16 15:17:50;;;;;;;;;;;;;;;;;;5030506;28;19917;-86
2021/11/16 15:20:34;;;;;;;;;;;;;;;;;;5031792;28;19952;-87
2021/11/16 15:23:19;;;;;;;;;;;;;;;;;;5020750;28;19912;-86
2021/11/16 15:25:45;;;;;;;;;;;;;;;;;;5036945;28;19916;-87
2021/11/16 15:28:12;;;;;;;;;;;;;;;;;;5037853;28;19931;-86
2021/11/16 15:30:41;;;;;;;;;;;;;;;;;;5050513;28;20278;-86
2021/11/16 15:33:07;;;;;;;;;;;;;;;;;;5025842;28;19916;-88
2021/11/16 15:35:37;;;;;;;;;;;;;;;;;;5038785;28;20263;-87
2021/11/16 15:38:04;;;;;;;;;;;;;;;;;;5034690;28;19963;-87
2021/11/16 15:40:29;;;;;;;;;;;;;;;;;;5022115;28;19927;-86
2021/11/16 15:43:02;;;;;;;;;;;;;;;;;;5036536;28;19913;-86
2021/11/16 15:45:53;;;;;;;;;;;;;;;;;;5046544;28;19917;-88
2021/11/16 15:48:26;;;;;;;;;;;;;;;;;;5010570;28;19921;-87
2021/11/16 15:51:09;;;;;;;;;;;;;;;;;;5022847;28;19912;-87
2021/11/16 15:53:45;;;;;;;;;;;;;;;;;;5050434;28;19963;-87
2021/11/16 15:58:59;;;;;;;;;;;;;;;;;;5067598;28;19912;-87
2021/11/16 16:01:31;;;;;;;;;;;;;;;;;;5039938;28;19923;-87
2021/11/16 16:03:57;;;;;;;;;;;;;;;;;;5066554;28;19962;-88
2021/11/16 16:06:28;;;;;;;;;;;;;;;;;;5054662;28;19916;-86
2021/11/16 16:08:58;;;;;;;;;;;;;;;;;;5034999;28;19921;-86
2021/11/16 16:11:23;;;;;;;;;;;;;;;;;;5034745;28;19924;-87
2021/11/16 16:13:50;;;;;;;;;;;;;;;;;;5023019;28;19914;-87
2021/11/16 16:16:20;;;;;;;;;;;;;;;;;;5037789;28;19916;-86
2021/11/16 16:18:46;;;;;;;;;;;;;;;;;;5015212;28;19917;-86
2021/11/16 16:21:14;;;;;;;;;;;;;;;;;;5023774;28;19921;-87
2021/11/16 16:23:44;;;;;;;;;;;;;;;;;;5025002;28;20363;-86
2021/11/16 16:26:10;;;;;;;;;;;;;;;;;;5037509;28;19917;-86
2021/11/16 16:28:46;;;;;;;;;;;;;;;;;;5038194;28;19913;-86
2021/11/16 16:31:13;;;;;;;;;;;;;;;;;;5050473;28;19924;-86
2021/11/16 16:33:39;;;;;;;;;;;;;;;;;;5050566;28;20358;-85
2021/11/16 16:36:05;;;;;;;;;;;;;;;;;;5027171;28;19969;-86
2021/11/16 16:38:31;;;;;;;;;;;;;;;;;;5022431;28;19917;-86
2021/11/16 16:41:00;;;;;;;;;;;;;;;;;;5036855;28;19920;-91
2021/11/16 16:43:27;;;;;;;;;;;;;;;;;;5055190;28;19913;-85
2021/11/16 16:45:55;;;;;;;;;;;;;;;;;;5037219;28;19919;-87
2021/11/16 16:48:21;;;;;;;;;;;;;;;;;;5004613;28;20486;-87
2021/11/16 16:50:48;;;;;;;;;;;;;;;;;;5017718;28;20371;-88
2021/11/16 16:53:16;;;;;;;;;;;;;;;;;;5026433;28;19917;-87
2021/11/16 16:55:42;;;;;;;;;;;;;;;;;;5034437;28;19996;-88
2021/11/16 16:58:11;;;;;;;;;;;;;;;;;;5034114;28;19913;-89
2021/11/16 17:00:38;;;;;;;;;;;;;;;;;;5017668;28;19913;-91
2021/11/16 17:03:03;;;;;;;;;;;;;;;;;;5018300;28;19917;-92
2021/11/16 17:05:30;;;;;;;;;;;;;;;;;;5020849;28;19928;-92
2021/11/16 17:07:56;;;;;;;;;;;;;;;;;;5054294;28;20327;-91
2021/11/16 17:10:22;;;;;;;;;;;;;;;;;;5054333;28;19971;-92
2021/11/16 17:12:47;;;;;;;;;;;;;;;;;;5053357;28;20444;-91
2021/11/16 17:15:14;;;;;;;;;;;;;;;;;;5053492;28;19917;-91
2021/11/16 17:17:41;;;;;;;;;;;;;;;;;;5052861;28;19916;-90
2021/11/16 17:20:07;;;;;;;;;;;;;;;;;;5053370;28;19978;-92